Agustina, Argentina
Current Conditions -  °F | °C
As of 9:00 AM on Saturday 20 Dec 2014 (Local Time) from SAAR Reporting Station
Thunderstorm Thunderstorm  
Wind Chill: 18°   Ceiling: 2500
Heat Index: 18°   Visibility: 3mi
Dew Point: 17°   Wind: 21mph
Humidity: 94%   Direction: 180°S
Pressure: 29.68"   Gusts: NA
Location:  34.39°S, 61°W
Report Text: SAAR 201200Z 18018KT 5000 TSRA BKN025FEW050CB OVC050 18/17 Q1005
Loading
Personal Weather Stations






























Interactive Weather Map New forecast layout! Learn more

10-Day Weather Forecast

Advertisements
Track Severe Weather on mobile